Time;durP1;ratioP1;P1;durP2;ratioP2;P2;SDS_P1;SDS_P2;PMS_P1;PMS_P2;Temp;Humidity;BMP_temperature;BMP_pressure;BME280_temperature;BME280_humidity;BME280_pressure;Samples;Min_cycle;Max_cycle;Signal;HPM_P1;HPM_P2
2021/12/02 00:01:39;;;;;;;15.13;1.50;;;3.40;99.90;;;;;;5052197;28;20052;-78
2021/12/02 00:04:07;;;;;;;19.52;1.80;;;3.40;99.90;;;;;;4989291;28;169272;-79
2021/12/02 00:06:33;;;;;;;12.95;1.33;;;3.40;99.90;;;;;;5038720;28;20052;-78
2021/12/02 00:08:59;;;;;;;12.85;1.42;;;3.40;99.90;;;;;;5032206;28;267477;-79
2021/12/02 00:11:26;;;;;;;10.77;1.50;;;3.40;99.90;;;;;;5035554;28;20053;-80
2021/12/02 00:13:58;;;;;;;9.13;1.23;;;3.40;99.90;;;;;;5033462;28;296292;-79
2021/12/02 00:21:46;;;;;;;13.60;1.55;;;3.30;99.90;;;;;;5043515;28;20057;-79
2021/12/02 00:24:18;;;;;;;13.27;1.48;;;3.30;99.90;;;;;;5014581;28;273277;-79
2021/12/02 00:26:49;;;;;;;11.82;1.52;;;3.30;99.90;;;;;;5012106;28;20041;-80
2021/12/02 00:29:19;;;;;;;13.00;1.30;;;3.20;99.90;;;;;;5034309;28;136770;-79
2021/12/02 00:31:47;;;;;;;10.80;1.60;;;3.20;99.90;;;;;;5033233;28;20060;-79
2021/12/02 00:34:14;;;;;;;12.80;1.33;;;3.20;99.90;;;;;;5022891;28;244192;-79
2021/12/02 00:36:41;;;;;;;9.38;0.95;;;3.20;99.90;;;;;;5029103;28;20057;-79
2021/12/02 00:39:17;;;;;;;10.23;1.20;;;3.10;99.90;;;;;;5008552;28;252522;-78
2021/12/02 00:41:44;;;;;;;10.95;1.10;;;3.10;99.90;;;;;;5028781;28;20045;-78
2021/12/02 00:44:13;;;;;;;13.45;1.27;;;3.10;99.90;;;;;;5016886;28;55119;-79
2021/12/02 00:46:39;;;;;;;15.00;1.40;;;3.10;99.90;;;;;;5027748;28;20053;-79
2021/12/02 00:49:12;;;;;;;9.40;1.30;;;3.10;99.90;;;;;;5024842;28;272118;-79
2021/12/02 00:51:40;;;;;;;7.47;1.40;;;3.10;99.90;;;;;;5046170;28;20438;-79
2021/12/02 00:54:10;;;;;;;13.45;1.25;;;3.10;99.90;;;;;;5023843;28;270359;-78
2021/12/02 00:56:37;;;;;;;9.85;1.70;;;3.10;99.90;;;;;;5044889;28;20053;-78
2021/12/02 00:59:06;;;;;;;10.65;1.50;;;3.20;99.90;;;;;;5022605;28;20099;-78
2021/12/02 01:01:36;;;;;;;12.35;1.52;;;3.20;99.90;;;;;;5025573;28;20480;-78
2021/12/02 01:04:08;;;;;;;10.13;1.27;;;3.20;99.90;;;;;;5012818;28;120107;-78
2021/12/02 01:06:35;;;;;;;9.27;1.10;;;3.20;99.90;;;;;;5038347;28;20049;-78
2021/12/02 01:09:06;;;;;;;7.60;1.05;;;3.20;99.90;;;;;;5011669;28;163312;-78
2021/12/02 01:11:32;;;;;;;8.35;1.33;;;3.30;99.90;;;;;;5021607;28;20060;-79
2021/12/02 01:13:59;;;;;;;11.43;1.38;;;3.40;99.90;;;;;;5034528;28;266202;-79
2021/12/02 01:16:26;;;;;;;11.90;1.23;;;3.40;99.90;;;;;;5045385;28;20477;-78
2021/12/02 01:18:53;;;;;;;9.77;1.05;;;3.40;99.90;;;;;;5023299;28;272868;-80
2021/12/02 01:21:22;;;;;;;8.93;1.10;;;3.50;99.90;;;;;;5044176;28;20063;-79
2021/12/02 01:23:54;;;;;;;14.15;1.65;;;3.40;99.90;;;;;;5024447;28;258573;-78
2021/12/02 01:26:21;;;;;;;12.68;1.30;;;3.40;99.90;;;;;;5028562;28;20045;-79
2021/12/02 01:28:50;;;;;;;9.63;1.25;;;3.40;99.90;;;;;;5007442;28;137005;-79
2021/12/02 01:31:16;;;;;;;10.13;1.02;;;3.40;99.90;;;;;;5010793;28;20060;-79
2021/12/02 01:33:45;;;;;;;12.25;1.70;;;3.40;99.90;;;;;;5008678;28;127662;-79
2021/12/02 01:36:12;;;;;;;14.77;1.30;;;3.30;99.90;;;;;;4999274;28;20045;-80
2021/12/02 01:38:39;;;;;;;13.20;1.10;;;3.30;99.90;;;;;;5032439;28;272790;-78
2021/12/02 01:41:05;;;;;;;14.10;1.63;;;3.30;99.90;;;;;;5044410;28;20052;-78
2021/12/02 01:43:49;;;;;;;10.63;1.20;;;3.40;99.90;;;;;;5018003;28;53655;-79
2021/12/02 01:46:19;;;;;;;12.85;1.40;;;3.50;99.90;;;;;;5044969;28;20052;-78
2021/12/02 01:49:06;;;;;;;10.68;1.40;;;3.50;99.90;;;;;;5012393;28;197322;-79
2021/12/02 01:51:44;;;;;;;10.88;1.40;;;3.60;99.90;;;;;;5045474;28;20060;-78
2021/12/02 01:54:19;;;;;;;9.82;1.20;;;3.50;99.90;;;;;;5013192;28;204425;-78
2021/12/02 01:56:53;;;;;;;14.40;1.42;;;3.60;99.90;;;;;;5027732;28;20052;-78
2021/12/02 01:59:25;;;;;;;15.38;1.58;;;3.60;99.90;;;;;;5006783;28;232986;-77
2021/12/02 02:01:57;;;;;;;11.43;1.15;;;3.60;99.90;;;;;;5046261;28;20121;-79
2021/12/02 02:04:23;;;;;;;11.05;1.23;;;3.50;99.90;;;;;;5006310;28;296161;-78
2021/12/02 02:07:01;;;;;;;8.93;1.10;;;3.50;99.90;;;;;;5049210;28;20057;-78
2021/12/02 02:09:31;;;;;;;11.43;1.30;;;3.50;99.90;;;;;;5015319;28;236798;-79
2021/12/02 02:12:00;;;;;;;10.82;1.25;;;3.50;99.90;;;;;;5042283;28;20049;-79
2021/12/02 02:14:27;;;;;;;7.53;0.95;;;3.40;99.90;;;;;;5019771;28;399157;-78
2021/12/02 02:16:56;;;;;;;10.45;0.93;;;3.30;99.90;;;;;;5043175;28;20040;-78
2021/12/02 02:19:23;;;;;;;8.23;1.05;;;3.20;99.90;;;;;;5027625;28;120503;-78
2021/12/02 02:21:49;;;;;;;6.80;0.88;;;3.20;99.90;;;;;;5023921;28;20067;-78
2021/12/02 02:24:17;;;;;;;8.15;1.00;;;3.10;99.90;;;;;;5004649;28;42217;-78
2021/12/02 02:26:44;;;;;;;7.68;0.85;;;3.00;99.90;;;;;;5036351;28;20520;-78
2021/12/02 02:29:13;;;;;;;7.65;0.93;;;2.90;99.90;;;;;;5002285;28;105109;-79
2021/12/02 02:31:42;;;;;;;10.10;1.10;;;2.90;99.90;;;;;;5037545;28;20400;-79
2021/12/02 02:34:08;;;;;;;7.70;0.98;;;2.80;99.90;;;;;;5023670;28;267857;-78
2021/12/02 02:36:38;;;;;;;6.82;0.90;;;2.80;99.90;;;;;;5041389;28;20433;-79
2021/12/02 02:39:05;;;;;;;9.77;1.30;;;2.70;99.90;;;;;;5011482;28;83683;-78
2021/12/02 02:41:42;;;;;;;5.93;0.80;;;2.70;99.90;;;;;;5026890;28;20084;-79
2021/12/02 02:44:09;;;;;;;6.90;0.90;;;2.80;99.90;;;;;;5004483;28;118522;-79
2021/12/02 02:46:39;;;;;;;9.02;1.20;;;2.70;99.90;;;;;;5043511;28;20067;-78
2021/12/02 02:49:08;;;;;;;9.05;1.00;;;2.70;99.90;;;;;;5006407;28;246933;-78
2021/12/02 02:51:36;;;;;;;8.13;1.05;;;2.70;99.90;;;;;;5044282;28;20048;-79
2021/12/02 02:54:05;;;;;;;8.02;0.90;;;2.70;99.90;;;;;;5023392;28;257027;-78
2021/12/02 02:56:41;;;;;;;5.82;0.80;;;2.60;99.90;;;;;;5041360;28;20065;-78
2021/12/02 03:12:28;;;;;;;10.68;1.23;;;2.40;99.90;;;;;;5003563;28;20042;-78
2021/12/02 03:17:31;;;;;;;10.30;0.88;;;2.40;99.90;;;;;;5005629;28;20054;-78
2021/12/02 03:19:58;;;;;;;6.93;0.90;;;2.40;99.90;;;;;;4985481;28;140457;-79
2021/12/02 03:22:24;;;;;;;12.02;1.00;;;2.40;99.90;;;;;;5000544;28;20054;-78
2021/12/02 03:24:51;;;;;;;8.43;1.10;;;2.30;99.90;;;;;;4967271;28;192891;-78
2021/12/02 03:27:17;;;;;;;7.70;0.93;;;2.30;99.90;;;;;;4987650;28;20057;-79
2021/12/02 03:29:43;;;;;;;7.45;0.95;;;2.30;99.90;;;;;;4968618;28;211684;-79
2021/12/02 03:32:10;;;;;;;8.48;0.93;;;2.40;99.90;;;;;;4984703;28;20080;-78
2021/12/02 03:34:38;;;;;;;11.30;1.13;;;2.40;99.90;;;;;;4967320;28;219598;-77
2021/12/02 03:37:05;;;;;;;8.32;0.95;;;2.40;99.90;;;;;;4999391;28;20046;-78
2021/12/02 03:39:31;;;;;;;9.88;1.00;;;2.40;99.90;;;;;;4990567;28;40341;-77
2021/12/02 03:41:58;;;;;;;12.13;1.30;;;2.50;99.90;;;;;;4976954;28;20046;-79
2021/12/02 03:44:25;;;;;;;7.85;0.80;;;2.50;99.90;;;;;;4973026;28;63451;-78
2021/12/02 03:46:53;;;;;;;8.45;1.02;;;2.50;99.90;;;;;;5031809;28;20064;-79
2021/12/02 03:49:20;;;;;;;9.52;1.02;;;2.50;99.90;;;;;;5022328;28;264578;-79
2021/12/02 03:51:46;;;;;;;8.40;1.25;;;2.50;99.90;;;;;;5040486;28;20052;-79
2021/12/02 03:54:13;;;;;;;12.13;1.30;;;2.50;99.90;;;;;;5007714;28;188674;-79
2021/12/02 03:56:39;;;;;;;9.15;1.10;;;2.50;99.90;;;;;;5023000;28;20045;-78
2021/12/02 03:59:05;;;;;;;8.50;1.00;;;2.40;99.90;;;;;;5034827;28;254714;-80
2021/12/02 04:01:32;;;;;;;8.18;1.00;;;2.40;99.90;;;;;;5047983;28;20044;-79
2021/12/02 04:03:58;;;;;;;9.32;1.00;;;2.40;99.90;;;;;;4901190;28;3000622;-78
2021/12/02 04:06:24;;;;;;;5.97;0.77;;;2.40;99.90;;;;;;5035055;28;20307;-78
2021/12/02 04:08:54;;;;;;;6.03;0.88;;;2.30;99.90;;;;;;5028500;28;276333;-79
2021/12/02 04:16:38;;;;;;;8.95;0.88;;;2.20;99.90;;;;;;5043590;28;20408;-78
2021/12/02 04:19:09;;;;;;;7.00;1.20;;;2.20;99.90;;;;;;5025651;28;272181;-79
2021/12/02 04:21:36;;;;;;;7.20;1.30;;;2.20;99.90;;;;;;5047267;28;20049;-79
2021/12/02 04:24:03;;;;;;;6.68;1.20;;;2.10;99.90;;;;;;5018858;28;62424;-78
2021/12/02 04:26:29;;;;;;;7.28;1.30;;;2.10;99.90;;;;;;5051314;28;20053;-79
2021/12/02 04:28:55;;;;;;;7.57;1.23;;;2.10;99.90;;;;;;5031737;28;275465;-79
2021/12/02 04:31:21;;;;;;;5.32;0.93;;;2.00;99.90;;;;;;5028817;28;20041;-79
2021/12/02 04:33:48;;;;;;;10.10;1.20;;;2.00;99.90;;;;;;5028141;28;272150;-79
2021/12/02 04:36:14;;;;;;;7.20;1.10;;;2.00;99.90;;;;;;5047182;28;20045;-80
2021/12/02 04:38:40;;;;;;;10.13;1.33;;;2.00;99.90;;;;;;5025326;28;253802;-79
2021/12/02 04:41:09;;;;;;;8.20;0.90;;;1.90;99.90;;;;;;5045888;28;20430;-79
2021/12/02 04:43:35;;;;;;;7.22;0.98;;;1.90;99.90;;;;;;5016347;28;53604;-79
2021/12/02 04:46:01;;;;;;;7.07;1.08;;;1.90;99.90;;;;;;5043767;28;20068;-79
2021/12/02 04:48:30;;;;;;;5.57;0.80;;;1.90;99.90;;;;;;5019022;28;20056;-78
2021/12/02 04:50:56;;;;;;;6.32;0.85;;;1.80;99.90;;;;;;5042307;28;20053;-79
2021/12/02 04:53:22;;;;;;;4.13;0.70;;;1.80;99.90;;;;;;5007543;28;248078;-80
2021/12/02 04:55:49;;;;;;;6.22;0.80;;;1.80;99.90;;;;;;5021942;28;20770;-79
2021/12/02 04:58:17;;;;;;;4.25;0.63;;;1.80;99.90;;;;;;5028653;28;254629;-79
2021/12/02 05:00:43;;;;;;;3.83;0.60;;;1.70;99.90;;;;;;5043422;28;20057;-79
2021/12/02 05:03:09;;;;;;;6.97;0.70;;;1.70;99.90;;;;;;5005680;28;262479;-79
2021/12/02 05:05:36;;;;;;;4.90;0.70;;;1.70;99.90;;;;;;5039961;28;20056;-79
2021/12/02 05:08:03;;;;;;;4.25;0.70;;;1.70;99.90;;;;;;5027400;28;314542;-79
2021/12/02 05:10:30;;;;;;;8.75;0.90;;;1.70;99.90;;;;;;5028773;28;20518;-79
2021/12/02 05:12:59;;;;;;;6.00;0.80;;;1.70;99.90;;;;;;5010690;28;20049;-79
2021/12/02 05:15:26;;;;;;;5.75;0.70;;;1.70;99.90;;;;;;5017564;28;84912;-79
2021/12/02 05:17:52;;;;;;;6.30;0.70;;;1.60;99.90;;;;;;5025062;28;20041;-79
2021/12/02 05:20:18;;;;;;;4.50;0.70;;;1.70;99.90;;;;;;5022886;28;261642;-80
2021/12/02 05:22:45;;;;;;;4.43;0.60;;;1.70;99.90;;;;;;5008570;28;20155;-78
2021/12/02 05:25:11;;;;;;;4.20;0.75;;;1.70;99.90;;;;;;5025919;28;274257;-79
2021/12/02 05:27:38;;;;;;;2.92;0.70;;;1.70;99.90;;;;;;5042908;28;20052;-78
2021/12/02 05:30:07;;;;;;;2.72;0.55;;;1.70;99.90;;;;;;5022095;28;256956;-80
2021/12/02 05:32:34;;;;;;;4.28;0.70;;;1.70;99.90;;;;;;5046346;28;20039;-79
2021/12/02 05:35:04;;;;;;;3.50;0.52;;;1.80;99.90;;;;;;5018566;28;200102;-78
2021/12/02 05:37:30;;;;;;;6.07;0.65;;;1.80;99.90;;;;;;5044761;28;20076;-78
2021/12/02 05:39:56;;;;;;;3.80;0.50;;;1.80;99.90;;;;;;5024673;28;294873;-78
2021/12/02 05:42:23;;;;;;;2.38;0.50;;;1.90;99.90;;;;;;5022373;28;20060;-78
2021/12/02 05:44:49;;;;;;;8.65;0.82;;;1.90;99.90;;;;;;4999687;28;225387;-78
2021/12/02 05:47:18;;;;;;;4.13;0.60;;;1.90;99.90;;;;;;5025192;28;20041;-79
2021/12/02 05:49:44;;;;;;;4.18;0.60;;;2.00;99.90;;;;;;4925419;28;2994843;-79
2021/12/02 05:52:10;;;;;;;3.20;0.45;;;2.00;99.90;;;;;;5040129;28;20080;-80
2021/12/02 05:54:37;;;;;;;3.72;0.60;;;2.00;99.90;;;;;;5025672;28;263211;-79
2021/12/02 05:57:03;;;;;;;2.90;0.47;;;2.10;99.90;;;;;;5038638;28;20061;-78
2021/12/02 05:59:29;;;;;;;3.58;0.57;;;2.10;99.90;;;;;;5011924;28;31065;-80
2021/12/02 06:01:56;;;;;;;5.95;0.73;;;2.10;99.90;;;;;;5046088;28;20053;-78
2021/12/02 06:04:26;;;;;;;3.92;0.55;;;2.10;99.90;;;;;;5001803;28;150301;-78
2021/12/02 06:06:52;;;;;;;5.57;0.60;;;2.20;99.90;;;;;;5017928;28;20033;-79
2021/12/02 06:09:21;;;;;;;5.60;0.70;;;2.20;99.90;;;;;;4992704;28;237384;-79
2021/12/02 06:11:47;;;;;;;6.90;0.60;;;2.20;99.90;;;;;;5039039;28;20068;-78
2021/12/02 06:14:14;;;;;;;4.35;0.70;;;2.20;99.90;;;;;;5003788;28;98647;-78
2021/12/02 06:16:41;;;;;;;6.20;0.80;;;2.30;99.90;;;;;;5022890;28;20059;-77
2021/12/02 06:19:08;;;;;;;5.32;0.85;;;2.30;99.90;;;;;;5026693;28;328261;-77
2021/12/02 06:21:34;;;;;;;5.28;0.90;;;2.20;99.90;;;;;;5050654;28;20033;-77
2021/12/02 06:24:04;;;;;;;4.82;0.70;;;2.30;99.90;;;;;;4982211;28;90173;-79
2021/12/02 06:26:33;;;;;;;4.07;0.90;;;2.30;99.90;;;;;;5047754;28;20400;-79
2021/12/02 06:29:00;;;;;;;4.47;0.60;;;2.30;99.90;;;;;;5028838;28;263568;-79
2021/12/02 06:31:29;;;;;;;6.93;0.70;;;2.30;99.90;;;;;;5013748;28;20058;-78
2021/12/02 06:33:55;;;;;;;4.65;0.70;;;2.30;99.90;;;;;;5012210;28;25529;-79
2021/12/02 06:36:21;;;;;;;7.15;0.80;;;2.30;99.90;;;;;;5038886;28;20167;-79
2021/12/02 06:38:47;;;;;;;4.60;0.70;;;2.30;99.90;;;;;;5022356;28;258883;-79
2021/12/02 06:41:16;;;;;;;5.93;0.88;;;2.20;99.90;;;;;;5037268;28;20053;-81
2021/12/02 06:43:42;;;;;;;4.90;0.95;;;2.20;99.90;;;;;;5014024;28;208716;-79
2021/12/02 06:46:08;;;;;;;6.47;0.90;;;2.20;99.90;;;;;;5041888;28;20083;-78
2021/12/02 06:48:34;;;;;;;5.40;0.77;;;2.20;99.90;;;;;;5013605;28;20056;-79
2021/12/02 06:51:01;;;;;;;6.45;0.68;;;2.20;99.90;;;;;;5042890;28;20486;-79
2021/12/02 06:53:27;;;;;;;9.25;1.10;;;2.20;99.90;;;;;;5012530;28;168672;-79
2021/12/02 06:55:53;;;;;;;8.77;1.05;;;2.20;99.90;;;;;;5025787;28;20127;-79
2021/12/02 06:58:19;;;;;;;10.00;1.00;;;2.20;99.90;;;;;;5009373;28;281528;-80
2021/12/02 07:00:45;;;;;;;9.05;1.20;;;2.10;99.90;;;;;;5047911;28;20033;-78
2021/12/02 07:03:11;;;;;;;7.63;1.30;;;2.20;99.90;;;;;;4981341;28;256728;-79
2021/12/02 07:05:37;;;;;;;6.05;0.98;;;2.20;99.90;;;;;;5005067;28;21469;-79
2021/12/02 07:08:04;;;;;;;6.05;0.98;;;2.20;99.90;;;;;;4996336;28;245065;-78
2021/12/02 07:10:32;;;;;;;4.75;0.80;;;2.20;99.90;;;;;;5037680;28;20491;-76
2021/12/02 07:12:59;;;;;;;7.82;1.10;;;2.30;99.90;;;;;;5027577;28;20063;-77
2021/12/02 07:17:57;;;;;;;4.18;0.93;;;2.30;99.90;;;;;;5015298;28;20052;-78
2021/12/02 07:20:29;;;;;;;5.88;1.27;;;2.30;99.90;;;;;;5001565;28;88218;-77
2021/12/02 07:22:59;;;;;;;8.30;1.10;;;2.40;99.90;;;;;;5016815;28;20053;-77
2021/12/02 07:25:26;;;;;;;11.50;1.33;;;2.40;99.90;;;;;;5008294;28;164984;-78
2021/12/02 07:27:53;;;;;;;9.07;1.60;;;2.40;99.90;;;;;;5043612;28;20049;-78
2021/12/02 07:30:19;;;;;;;5.25;1.10;;;2.40;99.90;;;;;;4996907;28;169885;-79
2021/12/02 07:32:52;;;;;;;6.68;1.20;;;2.40;99.90;;;;;;5027223;28;20056;-78
2021/12/02 07:35:19;;;;;;;5.43;1.00;;;2.40;99.90;;;;;;4995096;28;131016;-78
2021/12/02 07:37:48;;;;;;;6.70;1.08;;;2.40;99.90;;;;;;5025319;28;20057;-79
2021/12/02 07:40:15;;;;;;;5.95;1.23;;;2.40;99.90;;;;;;5025606;28;269822;-77
2021/12/02 07:42:44;;;;;;;8.80;1.50;;;2.40;99.90;;;;;;5019245;28;20072;-78
2021/12/02 07:45:10;;;;;;;7.90;1.55;;;2.40;99.90;;;;;;5021727;28;260410;-78
2021/12/02 07:47:39;;;;;;;10.15;1.90;;;2.40;99.90;;;;;;5025376;28;20048;-78
2021/12/02 07:50:08;;;;;;;5.70;1.30;;;2.40;99.90;;;;;;5025611;28;89316;-77
2021/12/02 07:52:38;;;;;;;8.15;1.40;;;2.40;99.90;;;;;;5046630;28;20361;-78
2021/12/02 07:55:08;;;;;;;5.05;1.00;;;2.40;99.90;;;;;;5023899;28;59552;-78
2021/12/02 07:57:34;;;;;;;7.78;1.48;;;2.40;99.90;;;;;;5039837;28;20427;-78
2021/12/02 08:00:01;;;;;;;8.38;1.63;;;2.30;99.90;;;;;;5014512;28;200121;-78
2021/12/02 08:02:33;;;;;;;10.10;1.60;;;2.30;99.90;;;;;;5044183;28;20045;-78
2021/12/02 08:04:59;;;;;;;7.90;1.40;;;2.30;99.90;;;;;;4998616;28;260754;-78
2021/12/02 08:07:25;;;;;;;8.70;1.50;;;2.30;99.90;;;;;;5024501;28;20072;-78
2021/12/02 08:09:51;;;;;;;10.00;1.80;;;2.30;99.90;;;;;;5023415;28;272925;-78
2021/12/02 08:12:18;;;;;;;8.20;1.80;;;2.30;99.90;;;;;;5023896;28;20060;-78
2021/12/02 08:14:44;;;;;;;8.43;1.80;;;2.40;99.90;;;;;;5015893;28;94628;-78
2021/12/02 08:17:10;;;;;;;9.75;1.70;;;2.30;99.90;;;;;;5044243;28;20048;-78
2021/12/02 08:19:36;;;;;;;7.63;1.88;;;2.30;99.90;;;;;;4999901;28;239638;-78
2021/12/02 08:22:03;;;;;;;7.57;1.80;;;2.30;99.90;;;;;;5041666;28;20052;-78
2021/12/02 08:24:29;;;;;;;9.85;2.45;;;2.30;99.90;;;;;;5024985;28;260873;-79
2021/12/02 08:26:55;;;;;;;6.78;1.90;;;2.20;99.90;;;;;;5042331;28;20420;-79
2021/12/02 08:29:22;;;;;;;7.10;1.80;;;2.20;99.90;;;;;;5005000;28;179097;-78
2021/12/02 08:31:48;;;;;;;7.65;1.80;;;2.20;99.90;;;;;;5026238;28;20049;-79
2021/12/02 08:34:16;;;;;;;6.82;1.58;;;2.10;99.90;;;;;;5005583;28;189574;-79
2021/12/02 08:36:49;;;;;;;6.55;1.42;;;2.10;99.90;;;;;;5038912;28;20060;-78
2021/12/02 08:39:18;;;;;;;6.75;1.48;;;2.10;99.90;;;;;;5027865;28;256628;-79
2021/12/02 08:41:48;;;;;;;8.20;1.52;;;2.10;99.90;;;;;;5021542;28;20486;-78
2021/12/02 08:44:16;;;;;;;6.90;1.30;;;2.10;99.90;;;;;;5015489;28;34342;-79
2021/12/02 08:46:42;;;;;;;9.15;1.60;;;2.00;99.90;;;;;;5030547;28;20064;-79
2021/12/02 08:49:08;;;;;;;7.43;1.27;;;2.00;99.90;;;;;;5024404;28;265671;-78
2021/12/02 08:51:35;;;;;;;5.82;1.42;;;2.00;99.90;;;;;;5040990;28;20049;-79
2021/12/02 08:54:01;;;;;;;6.47;1.40;;;2.10;99.90;;;;;;5001277;28;262207;-78
2021/12/02 08:56:27;;;;;;;6.25;1.27;;;2.10;99.90;;;;;;5034242;28;20053;-78
2021/12/02 08:58:54;;;;;;;6.68;1.35;;;2.10;99.90;;;;;;5028057;28;271700;-79
2021/12/02 09:01:20;;;;;;;7.15;1.38;;;2.10;99.90;;;;;;5046938;28;20076;-79
2021/12/02 09:03:46;;;;;;;7.47;1.60;;;2.20;99.90;;;;;;4997988;28;240472;-79
2021/12/02 09:06:12;;;;;;;7.55;1.23;;;2.20;99.90;;;;;;5061894;28;20162;-78
2021/12/02 09:08:41;;;;;;;9.68;1.40;;;2.30;99.90;;;;;;5033705;28;272425;-79
2021/12/02 09:11:10;;;;;;;6.13;1.35;;;2.30;99.90;;;;;;5035760;28;20053;-79
2021/12/02 09:13:37;;;;;;;9.73;1.50;;;2.40;99.90;;;;;;5030123;28;270989;-80
2021/12/02 09:16:04;;;;;;;8.02;1.33;;;2.40;99.90;;;;;;5037683;28;20053;-79
2021/12/02 09:18:30;;;;;;;8.45;1.20;;;2.50;99.90;;;;;;5019534;28;79212;-79
2021/12/02 09:20:58;;;;;;;6.65;1.50;;;2.60;99.90;;;;;;5032402;28;20057;-79
2021/12/02 09:23:25;;;;;;;9.35;1.80;;;2.80;99.90;;;;;;5036477;28;265755;-79
2021/12/02 09:25:52;;;;;;;10.80;1.70;;;2.90;99.90;;;;;;5047972;28;20073;-78
2021/12/02 09:28:18;;;;;;;6.53;1.43;;;3.00;99.90;;;;;;5024530;28;262283;-78
2021/12/02 09:30:45;;;;;;;7.18;1.50;;;3.10;99.90;;;;;;5023941;28;20049;-79
2021/12/02 09:33:11;;;;;;;9.43;1.50;;;3.10;99.90;;;;;;5008485;28;258053;-78
2021/12/02 09:35:37;;;;;;;8.93;1.60;;;3.20;99.90;;;;;;5045532;28;20045;-78
2021/12/02 09:38:08;;;;;;;10.20;1.83;;;3.30;99.90;;;;;;5014142;28;261729;-79
2021/12/02 09:40:36;;;;;;;7.72;1.60;;;3.30;99.90;;;;;;5009949;28;20048;-78
2021/12/02 09:43:02;;;;;;;8.23;1.70;;;3.40;99.90;;;;;;5044187;28;20060;-79
2021/12/02 09:45:29;;;;;;;9.77;1.80;;;3.40;99.90;;;;;;5019167;28;20041;-79
2021/12/02 09:47:55;;;;;;;7.95;1.77;;;3.40;99.90;;;;;;5050085;28;20064;-79
2021/12/02 09:50:29;;;;;;;11.38;1.77;;;3.40;99.90;;;;;;5027646;28;267533;-79
2021/12/02 09:53:00;;;;;;;8.82;1.90;;;3.40;99.90;;;;;;5032138;28;20053;-78
2021/12/02 09:58:09;;;;;;;8.52;1.90;;;3.50;99.90;;;;;;5032603;28;267777;-79
2021/12/02 10:00:48;;;;;;;7.75;1.75;;;3.60;99.90;;;;;;5029498;28;20071;-79
2021/12/02 10:03:32;;;;;;;10.60;2.00;;;3.60;99.90;;;;;;4973351;28;253693;-79
2021/12/02 10:06:14;;;;;;;9.98;1.60;;;3.70;99.90;;;;;;5017907;28;20081;-79
2021/12/02 10:08:59;;;;;;;10.13;1.45;;;3.70;99.90;;;;;;5029089;28;271606;-79
2021/12/02 10:11:28;;;;;;;8.57;1.40;;;3.80;99.90;;;;;;5030273;28;20051;-78
2021/12/02 10:14:00;;;;;;;8.52;1.27;;;3.80;99.90;;;;;;5017118;28;171744;-78
2021/12/02 10:16:32;;;;;;;5.03;0.98;;;3.70;99.90;;;;;;5049343;28;20049;-78
2021/12/02 10:19:06;;;;;;;7.20;1.17;;;3.70;99.90;;;;;;5028388;28;263438;-80
2021/12/02 10:21:39;;;;;;;7.45;0.93;;;3.70;99.90;;;;;;5045163;28;20076;-79
2021/12/02 10:24:09;;;;;;;5.72;1.25;;;3.80;99.90;;;;;;5024495;28;262173;-79
2021/12/02 10:26:42;;;;;;;5.53;1.25;;;3.90;99.90;;;;;;5047413;28;20056;-79
2021/12/02 10:29:36;;;;;;;5.30;1.00;;;3.90;99.90;;;;;;5027597;28;250123;-79
2021/12/02 10:32:19;;;;;;;3.55;0.80;;;3.70;99.90;;;;;;4963158;28;20062;-79
2021/12/02 10:34:54;;;;;;;1.42;0.40;;;3.40;99.90;;;;;;4948607;28;36501;-79
2021/12/02 10:37:25;;;;;;;4.22;0.50;;;3.10;99.90;;;;;;4948738;28;20345;-79
2021/12/02 10:40:01;;;;;;;1.48;0.40;;;2.70;99.90;;;;;;4934334;28;159266;-79
2021/12/02 10:42:31;;;;;;;4.65;0.57;;;2.50;99.90;;;;;;4966499;28;20065;-78
2021/12/02 10:45:04;;;;;;;4.10;0.70;;;2.60;99.90;;;;;;4950975;28;105606;-79
2021/12/02 10:47:31;;;;;;;5.47;0.88;;;2.50;99.90;;;;;;4951781;28;20035;-79
2021/12/02 10:50:00;;;;;;;3.47;0.80;;;2.60;99.90;;;;;;4933429;28;255826;-78
2021/12/02 10:52:28;;;;;;;3.28;0.60;;;2.60;99.90;;;;;;4959438;28;20051;-79
2021/12/02 10:55:07;;;;;;;3.75;0.73;;;2.70;99.90;;;;;;4956141;28;20054;-78
2021/12/02 10:57:36;;;;;;;3.10;0.70;;;2.50;99.90;;;;;;4967051;28;20050;-79
2021/12/02 11:00:12;;;;;;;3.78;0.60;;;2.50;99.90;;;;;;4945825;28;220940;-78
2021/12/02 11:02:48;;;;;;;4.55;0.85;;;2.50;99.90;;;;;;4945231;28;20061;-78
2021/12/02 11:05:24;;;;;;;4.72;1.20;;;2.60;99.90;;;;;;4940086;28;160122;-79
2021/12/02 11:07:57;;;;;;;5.63;1.30;;;2.60;99.90;;;;;;4966400;28;20051;-79
2021/12/02 11:10:25;;;;;;;5.13;1.10;;;2.60;99.90;;;;;;5023292;28;267907;-79
2021/12/02 11:12:54;;;;;;;4.57;0.93;;;2.60;99.90;;;;;;5041871;28;20049;-79
2021/12/02 11:15:23;;;;;;;5.07;0.90;;;2.60;99.90;;;;;;5010090;28;90418;-79
2021/12/02 11:17:51;;;;;;;3.42;0.80;;;2.70;99.90;;;;;;5027093;28;20049;-78
2021/12/02 11:20:22;;;;;;;3.78;0.70;;;2.70;99.90;;;;;;5011623;28;200232;-79
2021/12/02 11:22:58;;;;;;;3.83;0.80;;;2.70;99.90;;;;;;5029083;28;20076;-78
2021/12/02 11:25:24;;;;;;;5.82;0.77;;;2.80;99.90;;;;;;5040831;28;255638;-80
2021/12/02 11:27:52;;;;;;;3.22;0.75;;;2.80;99.90;;;;;;5027020;28;20055;-79
2021/12/02 11:30:21;;;;;;;1.90;0.60;;;2.80;99.90;;;;;;5027764;28;259273;-79
2021/12/02 11:33:15;;;;;;;3.00;0.70;;;2.90;99.90;;;;;;5024797;28;20061;-79
2021/12/02 11:35:44;;;;;;;3.85;0.80;;;2.90;99.90;;;;;;5003571;28;20045;-79
2021/12/02 11:38:17;;;;;;;3.40;0.70;;;2.70;99.90;;;;;;5026924;28;253036;-78
2021/12/02 11:40:46;;;;;;;3.70;0.90;;;2.60;99.90;;;;;;5039121;28;20061;-79
2021/12/02 11:43:20;;;;;;;3.90;0.83;;;2.60;99.90;;;;;;5028309;28;247684;-78
2021/12/02 11:45:49;;;;;;;2.70;0.80;;;2.60;99.90;;;;;;5048216;28;20087;-78
2021/12/02 11:48:21;;;;;;;3.97;0.90;;;2.60;99.90;;;;;;5030832;28;253188;-79
2021/12/02 11:50:49;;;;;;;5.25;1.10;;;2.70;99.90;;;;;;5044772;28;20057;-79
2021/12/02 11:53:21;;;;;;;4.05;0.93;;;2.70;99.90;;;;;;5028557;28;259846;-79
2021/12/02 11:55:50;;;;;;;4.18;0.73;;;2.70;99.90;;;;;;5046763;28;20061;-78
2021/12/02 11:58:17;;;;;;;5.70;0.93;;;2.70;99.90;;;;;;5009225;28;266784;-78
2021/12/02 12:00:46;;;;;;;3.15;0.70;;;2.60;99.90;;;;;;5049591;28;20644;-79
2021/12/02 12:03:18;;;;;;;5.15;0.90;;;2.60;99.90;;;;;;5008272;28;267479;-78
2021/12/02 12:05:59;;;;;;;5.78;0.85;;;2.50;99.90;;;;;;5016036;28;20068;-78
2021/12/02 12:08:48;;;;;;;4.20;0.90;;;2.50;99.90;;;;;;5023658;28;256159;-78
2021/12/02 12:11:23;;;;;;;5.38;1.00;;;2.50;99.90;;;;;;5048569;28;20228;-78
2021/12/02 12:13:53;;;;;;;5.57;0.82;;;2.50;99.90;;;;;;5015531;28;20546;-79
2021/12/02 12:16:26;;;;;;;3.45;0.80;;;2.50;99.90;;;;;;5018511;28;20048;-78
2021/12/02 12:18:54;;;;;;;4.32;0.90;;;2.40;99.90;;;;;;5000570;28;197124;-78
2021/12/02 12:21:36;;;;;;;3.28;0.88;;;2.50;99.90;;;;;;5025274;28;20053;-79
2021/12/02 12:24:02;;;;;;;5.47;0.90;;;2.50;99.90;;;;;;5025408;28;251358;-80
2021/12/02 12:26:37;;;;;;;6.70;0.77;;;2.40;99.90;;;;;;5030080;28;20053;-79
2021/12/02 12:29:03;;;;;;;7.95;1.00;;;2.50;99.90;;;;;;5011132;28;152637;-79
2021/12/02 12:34:41;;;;;;;22.13;1.92;;;4.90;99.90;;;;;;5025676;28;270295;-80
2021/12/02 12:40:10;;;;;;;4.53;0.93;;;7.60;99.90;;;;;;5008777;28;249055;-80
2021/12/02 12:42:43;;;;;;;7.28;1.15;;;8.40;99.90;;;;;;5029028;28;20060;-78
2021/12/02 12:45:13;;;;;;;5.28;0.73;;;8.90;99.90;;;;;;5021976;28;260643;-79
2021/12/02 12:47:42;;;;;;;4.05;1.05;;;9.00;99.90;;;;;;5048600;28;20050;-80
2021/12/02 12:50:24;;;;;;;32.60;1.77;;;9.50;99.90;;;;;;5014127;28;188066;-79
2021/12/02 12:53:16;;;;;;;4.55;0.80;;;9.60;99.90;;;;;;5029925;28;20053;-80
2021/12/02 12:55:55;;;;;;;5.97;0.52;;;9.30;99.90;;;;;;5030169;28;20415;-80
2021/12/02 12:58:29;;;;;;;5.95;0.75;;;7.70;99.90;;;;;;5034830;28;256173;-80
2021/12/02 13:01:01;;;;;;;5.65;0.90;;;8.00;99.90;;;;;;5045546;28;20137;-79
2021/12/02 13:06:18;;;;;;;5.97;0.95;;;7.60;99.90;;;;;;5032242;28;20132;-80
2021/12/02 13:08:56;;;;;;;4.93;0.88;;;8.10;99.90;;;;;;5017451;28;81228;-79
2021/12/02 13:11:30;;;;;;;55.33;2.22;;;8.70;99.90;;;;;;5025907;28;20056;-80
2021/12/02 13:13:57;;;;;;;3.38;0.80;;;9.70;99.90;;;;;;5021984;28;83041;-79
2021/12/02 13:16:23;;;;;;;5.13;0.93;;;8.60;99.90;;;;;;5032627;28;20053;-80
2021/12/02 13:18:53;;;;;;;6.18;1.00;;;7.80;99.90;;;;;;5024345;28;254941;-79
2021/12/02 13:21:31;;;;;;;4.72;0.80;;;7.90;99.90;;;;;;5016497;28;20256;-80
2021/12/02 13:24:02;;;;;;;6.78;1.25;;;7.50;99.90;;;;;;5018924;28;20053;-80
2021/12/02 13:26:35;;;;;;;8.60;1.60;;;7.80;99.90;;;;;;5046987;28;20339;-79
2021/12/02 13:29:11;;;;;;;5.72;1.55;;;8.80;99.90;;;;;;5017488;28;134896;-79
2021/12/02 13:31:40;;;;;;;6.32;1.08;;;8.80;99.90;;;;;;5029931;28;20511;-80
2021/12/02 13:34:09;;;;;;;11.73;1.40;;;10.00;99.90;;;;;;5024122;28;98866;-79
2021/12/02 13:36:40;;;;;;;5.55;1.38;;;10.90;99.90;;;;;;5035667;28;20053;-80
2021/12/02 13:39:08;;;;;;;5.78;1.70;;;12.00;99.90;;;;;;5020356;28;265430;-80
2021/12/02 13:41:47;;;;;;;8.60;1.80;;;12.70;99.90;;;;;;5040528;28;20061;-79